Aérodrome :
LOGIN :

S'inscrire | Disclaimer

   EN    FR    IT 

 










Légende :    VFR   VFR Marginal   IFR   IFR Intensif   IFR Très Intensif
Visi : 
Plafond : 
>= 8 km
>= 3000ft
5 à 8 km
1000 à 3000 ft
1500m à 5 km
500 à 1000 ft
800 à 1500m
200 à 500 ft
< 800m
< 200 ft
Symboles :   Orages  Brouillard  Fortes neiges  Fortes précipitations  Vent > 20 kt
SIGMETs :   Divers  Orages  Givrage  Turbulence  Onde Orograph.  Cendres Volcan.







- Altitude de l'aérodrome : 32 ft
- Code IATA : LKZ


EGUL - RAF Lakenheath

DERNIER METAR :
  • 280758Z AUTO 33004KT 9999 SCT014 08/08 A3000 RMK AO2 SLP162 T00770077

METARs EXPIRÉS :
  • 280658Z AUTO 30006KT 9999 CLR 06/06 A3000 RMK AO2 UPB06E19 SLP163 P0000 T00620062
  • 280558Z AUTO 00000KT 9999 CLR 04/04 A2999 RMK AO2 UPB35E37 SLP159 P0000 60000 T00410041 10072 20026 52004

TAF TAF EGUL
Valide du 28 à 04h jusqu'au 29 à 10h UTC


280405Z 2804/2910 32006KT 9999 SCT050 QNH2996INS
BECMG 2812/2813 05006KT 9999 SCT030 QNH3001INS TX12/2815Z TN01/2805Z
Pas de NOTAMs connus pour ce terrain.



MET'MAP, la Météo Aéronautique d'un coup d'oeil ! - Copyright ORBIFLY Décembre 2007 - Disclaimer

ORBIFLY MET'MAP TEAM :

Programmation & Développement : Alexandra Zaïnal
Conception & Développement : Baudouin d'Aumeries
Co-Programmation & Développement : Marc-Olivier Méhu
Soutien technique & logistique : Manuel Goepfert

Contact : metmap@orbifly.com




SOURCES & CREDITS :

   NOAA